sensor_id;sensor_type;location;lat;lon;timestamp;pressure;altitude;pressure_sealevel;temperature;humidity
55191;BME280;41070;50.360;18.742;2024-03-02T00:00:31;98043.25;;;8.72;100.00
55191;BME280;41070;50.360;18.742;2024-03-02T00:03:18;98037.11;;;8.70;100.00
55191;BME280;41070;50.360;18.742;2024-03-02T00:05:49;98029.16;;;8.73;100.00
55191;BME280;41070;50.360;18.742;2024-03-02T00:08:27;98030.84;;;8.75;100.00
55191;BME280;41070;50.360;18.742;2024-03-02T00:11:19;98024.79;;;8.75;100.00
55191;BME280;41070;50.360;18.742;2024-03-02T00:13:46;98024.92;;;8.77;100.00
55191;BME280;41070;50.360;18.742;2024-03-02T00:16:13;98022.94;;;8.77;100.00
55191;BME280;41070;50.360;18.742;2024-03-02T00:18:40;98027.62;;;8.72;100.00
55191;BME280;41070;50.360;18.742;2024-03-02T00:21:26;98030.05;;;8.65;100.00
55191;BME280;41070;50.360;18.742;2024-03-02T00:24:18;98027.84;;;8.59;100.00
55191;BME280;41070;50.360;18.742;2024-03-02T00:26:45;98027.34;;;8.54;100.00
55191;BME280;41070;50.360;18.742;2024-03-02T00:29:15;98021.34;;;8.53;100.00
55191;BME280;41070;50.360;18.742;2024-03-02T00:31:42;98019.70;;;8.51;100.00
55191;BME280;41070;50.360;18.742;2024-03-02T00:34:12;98020.89;;;8.49;100.00
55191;BME280;41070;50.360;18.742;2024-03-02T00:36:42;98017.15;;;8.46;100.00
55191;BME280;41070;50.360;18.742;2024-03-02T00:39:12;98018.10;;;8.44;100.00
55191;BME280;41070;50.360;18.742;2024-03-02T00:41:40;98021.91;;;8.40;100.00
55191;BME280;41070;50.360;18.742;2024-03-02T00:44:15;98023.27;;;8.37;100.00
55191;BME280;41070;50.360;18.742;2024-03-02T00:46:42;98023.48;;;8.36;100.00
55191;BME280;41070;50.360;18.742;2024-03-02T00:49:18;98020.38;;;8.34;100.00
55191;BME280;41070;50.360;18.742;2024-03-02T00:51:47;98015.80;;;8.34;100.00
55191;BME280;41070;50.360;18.742;2024-03-02T00:56:50;98011.67;;;8.33;100.00
55191;BME280;41070;50.360;18.742;2024-03-02T00:59:18;98012.98;;;8.35;100.00
55191;BME280;41070;50.360;18.742;2024-03-02T01:01:44;98010.17;;;8.31;100.00
55191;BME280;41070;50.360;18.742;2024-03-02T01:04:11;98009.91;;;8.29;100.00
55191;BME280;41070;50.360;18.742;2024-03-02T01:06:40;98013.41;;;8.27;100.00
55191;BME280;41070;50.360;18.742;2024-03-02T01:09:07;98014.77;;;8.20;100.00
55191;BME280;41070;50.360;18.742;2024-03-02T01:11:34;98010.56;;;8.17;100.00
55191;BME280;41070;50.360;18.742;2024-03-02T01:14:05;98006.98;;;8.12;100.00
55191;BME280;41070;50.360;18.742;2024-03-02T01:16:32;98006.94;;;8.06;100.00
55191;BME280;41070;50.360;18.742;2024-03-02T01:18:59;98004.50;;;8.04;100.00
55191;BME280;41070;50.360;18.742;2024-03-02T01:21:25;98002.77;;;8.02;100.00
55191;BME280;41070;50.360;18.742;2024-03-02T01:23:55;98004.15;;;7.97;100.00
55191;BME280;41070;50.360;18.742;2024-03-02T01:26:22;98003.57;;;7.92;100.00
55191;BME280;41070;50.360;18.742;2024-03-02T01:28:48;97994.04;;;7.88;100.00
55191;BME280;41070;50.360;18.742;2024-03-02T01:31:16;97991.92;;;7.81;100.00
55191;BME280;41070;50.360;18.742;2024-03-02T01:33:43;97990.71;;;7.76;100.00
55191;BME280;41070;50.360;18.742;2024-03-02T01:36:10;97987.40;;;7.74;100.00
55191;BME280;41070;50.360;18.742;2024-03-02T01:38:37;97988.73;;;7.70;100.00
55191;BME280;41070;50.360;18.742;2024-03-02T01:41:06;97991.98;;;7.64;100.00
55191;BME280;41070;50.360;18.742;2024-03-02T01:43:34;97983.23;;;7.59;100.00
55191;BME280;41070;50.360;18.742;2024-03-02T01:46:01;97978.20;;;7.59;100.00
55191;BME280;41070;50.360;18.742;2024-03-02T01:48:28;97974.40;;;7.54;100.00
55191;BME280;41070;50.360;18.742;2024-03-02T01:50:54;97975.14;;;7.52;100.00
55191;BME280;41070;50.360;18.742;2024-03-02T01:53:21;97971.97;;;7.53;100.00
55191;BME280;41070;50.360;18.742;2024-03-02T01:55:48;97969.74;;;7.53;100.00
55191;BME280;41070;50.360;18.742;2024-03-02T01:58:15;97979.14;;;7.55;100.00
55191;BME280;41070;50.360;18.742;2024-03-02T02:00:42;97972.67;;;7.54;100.00
55191;BME280;41070;50.360;18.742;2024-03-02T02:03:09;97970.44;;;7.53;100.00
55191;BME280;41070;50.360;18.742;2024-03-02T02:05:35;97971.73;;;7.47;100.00
55191;BME280;41070;50.360;18.742;2024-03-02T02:08:02;97972.11;;;7.47;100.00
55191;BME280;41070;50.360;18.742;2024-03-02T02:10:29;97973.51;;;7.46;100.00
55191;BME280;41070;50.360;18.742;2024-03-02T02:12:56;97977.48;;;7.43;100.00
55191;BME280;41070;50.360;18.742;2024-03-02T02:15:25;97976.25;;;7.43;100.00
55191;BME280;41070;50.360;18.742;2024-03-02T02:17:53;97965.74;;;7.43;100.00
55191;BME280;41070;50.360;18.742;2024-03-02T02:20:20;97967.23;;;7.40;100.00
55191;BME280;41070;50.360;18.742;2024-03-02T02:23:01;97972.56;;;7.40;100.00
55191;BME280;41070;50.360;18.742;2024-03-02T02:25:29;97966.40;;;7.42;100.00
55191;BME280;41070;50.360;18.742;2024-03-02T02:27:56;97964.92;;;7.41;100.00
55191;BME280;41070;50.360;18.742;2024-03-02T02:30:30;97965.48;;;7.42;100.00
55191;BME280;41070;50.360;18.742;2024-03-02T02:33:01;97965.80;;;7.45;100.00
55191;BME280;41070;50.360;18.742;2024-03-02T02:35:27;97966.45;;;7.44;100.00
55191;BME280;41070;50.360;18.742;2024-03-02T02:37:56;97966.65;;;7.46;100.00
55191;BME280;41070;50.360;18.742;2024-03-02T02:40:24;97969.74;;;7.44;100.00
55191;BME280;41070;50.360;18.742;2024-03-02T02:42:52;97965.97;;;7.43;100.00
55191;BME280;41070;50.360;18.742;2024-03-02T02:45:19;97964.23;;;7.41;100.00
55191;BME280;41070;50.360;18.742;2024-03-02T02:47:46;97970.33;;;7.39;100.00
55191;BME280;41070;50.360;18.742;2024-03-02T02:50:14;97972.73;;;7.37;100.00
55191;BME280;41070;50.360;18.742;2024-03-02T02:52:44;97972.41;;;7.37;100.00
55191;BME280;41070;50.360;18.742;2024-03-02T02:55:15;97969.41;;;7.39;100.00
55191;BME280;41070;50.360;18.742;2024-03-02T02:57:47;97964.90;;;7.38;100.00
55191;BME280;41070;50.360;18.742;2024-03-02T03:00:15;97963.10;;;7.36;100.00
55191;BME280;41070;50.360;18.742;2024-03-02T03:02:47;97961.34;;;7.38;100.00
55191;BME280;41070;50.360;18.742;2024-03-02T03:05:15;97964.76;;;7.41;100.00
55191;BME280;41070;50.360;18.742;2024-03-02T03:07:42;97961.45;;;7.42;100.00
55191;BME280;41070;50.360;18.742;2024-03-02T03:10:10;97962.52;;;7.44;100.00
55191;BME280;41070;50.360;18.742;2024-03-02T03:12:37;97963.08;;;7.48;100.00
55191;BME280;41070;50.360;18.742;2024-03-02T03:15:04;97963.54;;;7.48;100.00
55191;BME280;41070;50.360;18.742;2024-03-02T03:17:32;97957.80;;;7.50;100.00
55191;BME280;41070;50.360;18.742;2024-03-02T03:19:59;97961.39;;;7.50;100.00
55191;BME280;41070;50.360;18.742;2024-03-02T03:22:27;97961.00;;;7.56;100.00
55191;BME280;41070;50.360;18.742;2024-03-02T03:24:53;97959.96;;;7.59;100.00
55191;BME280;41070;50.360;18.742;2024-03-02T03:27:20;97957.80;;;7.60;100.00
55191;BME280;41070;50.360;18.742;2024-03-02T03:29:48;97961.54;;;7.59;100.00
55191;BME280;41070;50.360;18.742;2024-03-02T03:32:15;97960.28;;;7.57;100.00
55191;BME280;41070;50.360;18.742;2024-03-02T03:34:42;97966.25;;;7.60;100.00
55191;BME280;41070;50.360;18.742;2024-03-02T03:37:09;97966.88;;;7.61;100.00
55191;BME280;41070;50.360;18.742;2024-03-02T03:39:36;97966.05;;;7.62;100.00
55191;BME280;41070;50.360;18.742;2024-03-02T03:42:03;97965.67;;;7.67;100.00
55191;BME280;41070;50.360;18.742;2024-03-02T03:44:30;97968.41;;;7.67;100.00
55191;BME280;41070;50.360;18.742;2024-03-02T03:46:57;97970.89;;;7.66;100.00
55191;BME280;41070;50.360;18.742;2024-03-02T03:49:24;97967.81;;;7.68;100.00
55191;BME280;41070;50.360;18.742;2024-03-02T03:51:50;97963.52;;;7.70;100.00
55191;BME280;41070;50.360;18.742;2024-03-02T03:54:17;97967.05;;;7.70;100.00
55191;BME280;41070;50.360;18.742;2024-03-02T03:56:44;97969.20;;;7.69;100.00
55191;BME280;41070;50.360;18.742;2024-03-02T03:59:11;97972.56;;;7.69;100.00
55191;BME280;41070;50.360;18.742;2024-03-02T04:01:37;97972.04;;;7.69;100.00
55191;BME280;41070;50.360;18.742;2024-03-02T04:04:04;97974.55;;;7.69;100.00
55191;BME280;41070;50.360;18.742;2024-03-02T04:06:30;97975.61;;;7.69;100.00
55191;BME280;41070;50.360;18.742;2024-03-02T04:08:58;97978.20;;;7.72;100.00
55191;BME280;41070;50.360;18.742;2024-03-02T04:11:25;97969.73;;;7.70;100.00
55191;BME280;41070;50.360;18.742;2024-03-02T04:13:53;97974.58;;;7.70;100.00
55191;BME280;41070;50.360;18.742;2024-03-02T04:16:19;97971.55;;;7.70;100.00
55191;BME280;41070;50.360;18.742;2024-03-02T04:18:46;97970.80;;;7.74;100.00
55191;BME280;41070;50.360;18.742;2024-03-02T04:21:13;97967.56;;;7.76;100.00
55191;BME280;41070;50.360;18.742;2024-03-02T04:23:41;97964.00;;;7.76;100.00
55191;BME280;41070;50.360;18.742;2024-03-02T04:26:08;97967.16;;;7.74;100.00
55191;BME280;41070;50.360;18.742;2024-03-02T04:28:35;97970.26;;;7.73;100.00
55191;BME280;41070;50.360;18.742;2024-03-02T04:31:03;97968.08;;;7.72;100.00
55191;BME280;41070;50.360;18.742;2024-03-02T04:33:29;97973.91;;;7.71;100.00
55191;BME280;41070;50.360;18.742;2024-03-02T04:35:56;97971.28;;;7.67;100.00
55191;BME280;41070;50.360;18.742;2024-03-02T04:38:23;97971.01;;;7.65;100.00
55191;BME280;41070;50.360;18.742;2024-03-02T04:40:50;97970.12;;;7.63;100.00
55191;BME280;41070;50.360;18.742;2024-03-02T04:43:26;97975.52;;;7.63;100.00
55191;BME280;41070;50.360;18.742;2024-03-02T04:46:00;97976.63;;;7.64;100.00
55191;BME280;41070;50.360;18.742;2024-03-02T04:48:27;97978.86;;;7.63;100.00
55191;BME280;41070;50.360;18.742;2024-03-02T04:50:53;97980.75;;;7.62;100.00
55191;BME280;41070;50.360;18.742;2024-03-02T04:53:20;97982.71;;;7.62;100.00
55191;BME280;41070;50.360;18.742;2024-03-02T04:55:47;97984.46;;;7.59;100.00
55191;BME280;41070;50.360;18.742;2024-03-02T04:58:45;97984.42;;;7.55;100.00
55191;BME280;41070;50.360;18.742;2024-03-02T05:01:12;97981.46;;;7.53;100.00
55191;BME280;41070;50.360;18.742;2024-03-02T05:03:39;97976.92;;;7.51;100.00
55191;BME280;41070;50.360;18.742;2024-03-02T05:06:06;97977.91;;;7.48;100.00
55191;BME280;41070;50.360;18.742;2024-03-02T05:08:32;97979.45;;;7.46;100.00
55191;BME280;41070;50.360;18.742;2024-03-02T05:10:59;97981.96;;;7.46;100.00
55191;BME280;41070;50.360;18.742;2024-03-02T05:13:48;97987.23;;;7.49;100.00
55191;BME280;41070;50.360;18.742;2024-03-02T05:16:14;97989.78;;;7.51;100.00
55191;BME280;41070;50.360;18.742;2024-03-02T05:18:41;97992.98;;;7.51;100.00
55191;BME280;41070;50.360;18.742;2024-03-02T05:21:08;97994.66;;;7.52;100.00
55191;BME280;41070;50.360;18.742;2024-03-02T05:23:34;97992.53;;;7.51;100.00
55191;BME280;41070;50.360;18.742;2024-03-02T05:26:05;97991.73;;;7.50;100.00
55191;BME280;41070;50.360;18.742;2024-03-02T05:28:32;97994.00;;;7.50;100.00
55191;BME280;41070;50.360;18.742;2024-03-02T05:30:59;97997.72;;;7.52;100.00
55191;BME280;41070;50.360;18.742;2024-03-02T05:33:26;98004.69;;;7.51;100.00
55191;BME280;41070;50.360;18.742;2024-03-02T05:35:54;98006.33;;;7.50;100.00
55191;BME280;41070;50.360;18.742;2024-03-02T05:38:21;98007.44;;;7.49;100.00
55191;BME280;41070;50.360;18.742;2024-03-02T05:40:48;98006.67;;;7.49;100.00
55191;BME280;41070;50.360;18.742;2024-03-02T05:43:16;98012.21;;;7.51;100.00
55191;BME280;41070;50.360;18.742;2024-03-02T05:45:42;98015.27;;;7.51;100.00
55191;BME280;41070;50.360;18.742;2024-03-02T05:48:09;98013.20;;;7.54;100.00
55191;BME280;41070;50.360;18.742;2024-03-02T05:50:36;98018.77;;;7.54;100.00
55191;BME280;41070;50.360;18.742;2024-03-02T05:53:02;98019.31;;;7.55;100.00
55191;BME280;41070;50.360;18.742;2024-03-02T05:55:29;98024.52;;;7.58;100.00
55191;BME280;41070;50.360;18.742;2024-03-02T05:57:57;98025.30;;;7.61;100.00
55191;BME280;41070;50.360;18.742;2024-03-02T06:00:38;98021.56;;;7.58;100.00
55191;BME280;41070;50.360;18.742;2024-03-02T06:03:05;98019.79;;;7.58;100.00
55191;BME280;41070;50.360;18.742;2024-03-02T06:05:33;98021.67;;;7.57;100.00
55191;BME280;41070;50.360;18.742;2024-03-02T06:08:04;98023.08;;;7.58;100.00
55191;BME280;41070;50.360;18.742;2024-03-02T06:10:33;98024.92;;;7.62;100.00
55191;BME280;41070;50.360;18.742;2024-03-02T06:13:03;98029.48;;;7.64;100.00
55191;BME280;41070;50.360;18.742;2024-03-02T06:15:30;98030.48;;;7.67;100.00
55191;BME280;41070;50.360;18.742;2024-03-02T06:18:06;98028.52;;;7.69;100.00
55191;BME280;41070;50.360;18.742;2024-03-02T06:20:53;98030.70;;;7.72;100.00
55191;BME280;41070;50.360;18.742;2024-03-02T06:23:22;98033.70;;;7.74;100.00
55191;BME280;41070;50.360;18.742;2024-03-02T06:25:50;98033.15;;;7.75;100.00
55191;BME280;41070;50.360;18.742;2024-03-02T06:28:26;98031.36;;;7.76;100.00
55191;BME280;41070;50.360;18.742;2024-03-02T06:30:53;98031.96;;;7.79;100.00
55191;BME280;41070;50.360;18.742;2024-03-02T06:33:20;98042.62;;;7.81;100.00
55191;BME280;41070;50.360;18.742;2024-03-02T06:35:47;98043.48;;;7.85;100.00
55191;BME280;41070;50.360;18.742;2024-03-02T06:38:15;98041.02;;;7.92;100.00
55191;BME280;41070;50.360;18.742;2024-03-02T06:40:41;98040.56;;;7.95;100.00
55191;BME280;41070;50.360;18.742;2024-03-02T06:43:08;98042.10;;;7.98;100.00
55191;BME280;41070;50.360;18.742;2024-03-02T06:45:44;98048.02;;;8.03;100.00
55191;BME280;41070;50.360;18.742;2024-03-02T06:48:14;98049.11;;;8.07;100.00
55191;BME280;41070;50.360;18.742;2024-03-02T06:50:50;98045.85;;;8.12;100.00
55191;BME280;41070;50.360;18.742;2024-03-02T06:53:20;98047.70;;;8.17;100.00
55191;BME280;41070;50.360;18.742;2024-03-02T06:55:52;98049.20;;;8.18;100.00
55191;BME280;41070;50.360;18.742;2024-03-02T06:58:20;98046.17;;;8.24;100.00
55191;BME280;41070;50.360;18.742;2024-03-02T07:00:54;98049.77;;;8.28;100.00
55191;BME280;41070;50.360;18.742;2024-03-02T07:06:45;98052.39;;;8.35;100.00
55191;BME280;41070;50.360;18.742;2024-03-02T07:09:11;98054.77;;;8.38;100.00
55191;BME280;41070;50.360;18.742;2024-03-02T07:11:45;98055.36;;;8.42;100.00
55191;BME280;41070;50.360;18.742;2024-03-02T07:14:13;98054.13;;;8.47;100.00
55191;BME280;41070;50.360;18.742;2024-03-02T07:16:40;98050.39;;;8.56;100.00
55191;BME280;41070;50.360;18.742;2024-03-02T07:19:09;98047.13;;;8.66;100.00
55191;BME280;41070;50.360;18.742;2024-03-02T07:21:35;98053.46;;;8.75;100.00
55191;BME280;41070;50.360;18.742;2024-03-02T07:24:02;98059.16;;;8.84;100.00
55191;BME280;41070;50.360;18.742;2024-03-02T07:26:30;98057.23;;;8.92;100.00
55191;BME280;41070;50.360;18.742;2024-03-02T07:28:57;98062.94;;;9.01;100.00
55191;BME280;41070;50.360;18.742;2024-03-02T07:31:23;98064.42;;;9.08;100.00
55191;BME280;41070;50.360;18.742;2024-03-02T07:33:50;98066.45;;;9.14;100.00
55191;BME280;41070;50.360;18.742;2024-03-02T07:36:18;98067.11;;;9.16;100.00
55191;BME280;41070;50.360;18.742;2024-03-02T07:38:45;98064.60;;;9.22;100.00
55191;BME280;41070;50.360;18.742;2024-03-02T07:41:16;98065.66;;;9.25;100.00
55191;BME280;41070;50.360;18.742;2024-03-02T07:43:44;98064.89;;;9.32;100.00
55191;BME280;41070;50.360;18.742;2024-03-02T07:46:10;98066.45;;;9.37;100.00
55191;BME280;41070;50.360;18.742;2024-03-02T07:48:37;98068.50;;;9.43;100.00
55191;BME280;41070;50.360;18.742;2024-03-02T07:51:04;98069.89;;;9.47;100.00
55191;BME280;41070;50.360;18.742;2024-03-02T07:53:31;98076.30;;;9.51;100.00
55191;BME280;41070;50.360;18.742;2024-03-02T07:55:57;98080.69;;;9.55;100.00
55191;BME280;41070;50.360;18.742;2024-03-02T07:58:28;98078.13;;;9.60;100.00
55191;BME280;41070;50.360;18.742;2024-03-02T08:00:56;98074.32;;;9.64;100.00
55191;BME280;41070;50.360;18.742;2024-03-02T08:03:22;98078.30;;;9.72;100.00
55191;BME280;41070;50.360;18.742;2024-03-02T08:05:49;98076.10;;;9.73;100.00
55191;BME280;41070;50.360;18.742;2024-03-02T08:08:16;98078.71;;;9.74;100.00
55191;BME280;41070;50.360;18.742;2024-03-02T08:10:42;98081.13;;;9.82;100.00
55191;BME280;41070;50.360;18.742;2024-03-02T08:13:09;98081.25;;;9.88;100.00
55191;BME280;41070;50.360;18.742;2024-03-02T08:15:35;98079.81;;;9.93;100.00
55191;BME280;41070;50.360;18.742;2024-03-02T08:18:02;98080.70;;;9.98;100.00
55191;BME280;41070;50.360;18.742;2024-03-02T08:20:29;98075.93;;;10.01;100.00
55191;BME280;41070;50.360;18.742;2024-03-02T08:22:55;98078.77;;;10.01;100.00
55191;BME280;41070;50.360;18.742;2024-03-02T08:25:22;98076.55;;;10.05;100.00
55191;BME280;41070;50.360;18.742;2024-03-02T08:27:48;98082.52;;;10.12;100.00
55191;BME280;41070;50.360;18.742;2024-03-02T08:30:15;98077.55;;;10.20;100.00
55191;BME280;41070;50.360;18.742;2024-03-02T08:32:43;98085.59;;;10.22;100.00
55191;BME280;41070;50.360;18.742;2024-03-02T08:35:13;98088.96;;;10.29;100.00
55191;BME280;41070;50.360;18.742;2024-03-02T08:37:41;98087.36;;;10.36;100.00
55191;BME280;41070;50.360;18.742;2024-03-02T08:40:08;98085.34;;;10.42;100.00
55191;BME280;41070;50.360;18.742;2024-03-02T08:42:35;98082.73;;;10.50;99.98
55191;BME280;41070;50.360;18.742;2024-03-02T08:45:01;98083.59;;;10.54;99.98
55191;BME280;41070;50.360;18.742;2024-03-02T08:47:28;98083.66;;;10.63;100.00
55191;BME280;41070;50.360;18.742;2024-03-02T08:49:55;98084.27;;;10.71;99.93
55191;BME280;41070;50.360;18.742;2024-03-02T08:52:27;98082.17;;;10.74;99.61
55191;BME280;41070;50.360;18.742;2024-03-02T08:54:54;98081.27;;;10.79;99.57
55191;BME280;41070;50.360;18.742;2024-03-02T08:57:21;98087.56;;;10.89;99.69
55191;BME280;41070;50.360;18.742;2024-03-02T08:59:48;98084.92;;;10.95;99.63
55191;BME280;41070;50.360;18.742;2024-03-02T09:02:14;98084.46;;;11.05;99.79
55191;BME280;41070;50.360;18.742;2024-03-02T09:04:41;98088.59;;;11.13;99.62
55191;BME280;41070;50.360;18.742;2024-03-02T09:07:07;98091.46;;;11.21;99.51
55191;BME280;41070;50.360;18.742;2024-03-02T09:09:54;98091.79;;;11.22;99.09
55191;BME280;41070;50.360;18.742;2024-03-02T09:12:47;98098.22;;;11.18;98.39
55191;BME280;41070;50.360;18.742;2024-03-02T09:15:15;98096.00;;;11.13;98.01
55191;BME280;41070;50.360;18.742;2024-03-02T09:17:42;98098.09;;;11.09;97.83
55191;BME280;41070;50.360;18.742;2024-03-02T09:20:09;98095.64;;;11.04;97.78
55191;BME280;41070;50.360;18.742;2024-03-02T09:22:36;98099.50;;;11.02;97.98
55191;BME280;41070;50.360;18.742;2024-03-02T09:25:03;98102.95;;;11.03;97.93
55191;BME280;41070;50.360;18.742;2024-03-02T09:27:30;98102.36;;;11.09;98.44
55191;BME280;41070;50.360;18.742;2024-03-02T09:29:57;98104.07;;;11.19;98.73
55191;BME280;41070;50.360;18.742;2024-03-02T09:32:23;98103.09;;;11.25;98.72
55191;BME280;41070;50.360;18.742;2024-03-02T09:34:51;98105.48;;;11.31;98.42
55191;BME280;41070;50.360;18.742;2024-03-02T09:37:33;98101.30;;;11.34;98.40
55191;BME280;41070;50.360;18.742;2024-03-02T09:40:00;98100.65;;;11.36;97.90
55191;BME280;41070;50.360;18.742;2024-03-02T09:42:27;98098.52;;;11.36;98.12
55191;BME280;41070;50.360;18.742;2024-03-02T09:44:54;98101.02;;;11.40;98.17
55191;BME280;41070;50.360;18.742;2024-03-02T09:47:20;98098.27;;;11.45;98.47
55191;BME280;41070;50.360;18.742;2024-03-02T09:49:47;98103.99;;;11.49;98.19
55191;BME280;41070;50.360;18.742;2024-03-02T09:52:14;98106.83;;;11.49;98.06
55191;BME280;41070;50.360;18.742;2024-03-02T09:54:48;98104.55;;;11.50;98.37
55191;BME280;41070;50.360;18.742;2024-03-02T09:57:15;98102.95;;;11.56;98.22
55191;BME280;41070;50.360;18.742;2024-03-02T09:59:43;98103.46;;;11.60;98.17
55191;BME280;41070;50.360;18.742;2024-03-02T10:02:11;98104.63;;;11.66;97.91
55191;BME280;41070;50.360;18.742;2024-03-02T10:04:37;98103.76;;;11.69;97.47
55191;BME280;41070;50.360;18.742;2024-03-02T10:07:17;98103.20;;;11.73;97.57
55191;BME280;41070;50.360;18.742;2024-03-02T10:09:46;98099.57;;;11.81;97.49
55191;BME280;41070;50.360;18.742;2024-03-02T10:12:14;98099.70;;;11.85;96.87
55191;BME280;41070;50.360;18.742;2024-03-02T10:14:41;98099.53;;;11.85;96.55
55191;BME280;41070;50.360;18.742;2024-03-02T10:17:09;98098.29;;;11.89;96.27
55191;BME280;41070;50.360;18.742;2024-03-02T10:19:36;98095.42;;;11.96;96.65
55191;BME280;41070;50.360;18.742;2024-03-02T10:22:05;98098.72;;;12.01;96.66
55191;BME280;41070;50.360;18.742;2024-03-02T10:24:40;98092.30;;;12.10;96.87
55191;BME280;41070;50.360;18.742;2024-03-02T10:27:15;98098.05;;;12.22;96.88
55191;BME280;41070;50.360;18.742;2024-03-02T10:29:41;98098.33;;;12.33;96.60
55191;BME280;41070;50.360;18.742;2024-03-02T10:32:09;98097.45;;;12.36;95.67
55191;BME280;41070;50.360;18.742;2024-03-02T10:34:37;98097.36;;;12.41;96.21
55191;BME280;41070;50.360;18.742;2024-03-02T10:37:06;98094.45;;;12.49;95.87
55191;BME280;41070;50.360;18.742;2024-03-02T10:39:34;98099.70;;;12.52;95.78
55191;BME280;41070;50.360;18.742;2024-03-02T10:42:14;98097.71;;;12.59;96.05
55191;BME280;41070;50.360;18.742;2024-03-02T10:44:41;98102.59;;;12.64;95.57
55191;BME280;41070;50.360;18.742;2024-03-02T10:47:08;98102.59;;;12.64;95.42
55191;BME280;41070;50.360;18.742;2024-03-02T10:49:37;98099.42;;;12.69;95.73
55191;BME280;41070;50.360;18.742;2024-03-02T10:52:04;98099.29;;;12.78;95.78
55191;BME280;41070;50.360;18.742;2024-03-02T10:54:31;98104.30;;;12.88;95.87
55191;BME280;41070;50.360;18.742;2024-03-02T10:57:04;98104.00;;;12.97;95.64
55191;BME280;41070;50.360;18.742;2024-03-02T10:59:53;98104.30;;;13.04;95.33
55191;BME280;41070;50.360;18.742;2024-03-02T11:02:23;98101.60;;;13.11;95.30
55191;BME280;41070;50.360;18.742;2024-03-02T11:04:54;98098.83;;;13.18;95.03
55191;BME280;41070;50.360;18.742;2024-03-02T11:07:22;98099.14;;;13.20;94.82
55191;BME280;41070;50.360;18.742;2024-03-02T11:09:57;98101.16;;;13.16;94.26
55191;BME280;41070;50.360;18.742;2024-03-02T11:12:31;98098.71;;;13.13;94.40
55191;BME280;41070;50.360;18.742;2024-03-02T11:15:45;98104.96;;;13.11;94.31
55191;BME280;41070;50.360;18.742;2024-03-02T11:18:13;98105.13;;;13.04;94.18
55191;BME280;41070;50.360;18.742;2024-03-02T11:20:41;98105.90;;;12.96;94.22
55191;BME280;41070;50.360;18.742;2024-03-02T11:23:09;98105.04;;;12.85;93.82
55191;BME280;41070;50.360;18.742;2024-03-02T11:25:36;98103.23;;;12.74;93.75
55191;BME280;41070;50.360;18.742;2024-03-02T11:28:07;98106.02;;;12.62;93.58
55191;BME280;41070;50.360;18.742;2024-03-02T11:33:05;98107.07;;;12.46;93.65
55191;BME280;41070;50.360;18.742;2024-03-02T11:35:36;98104.10;;;12.34;93.76
55191;BME280;41070;50.360;18.742;2024-03-02T11:38:06;98104.19;;;12.29;93.88
55191;BME280;41070;50.360;18.742;2024-03-02T11:40:33;98099.23;;;12.24;94.23
55191;BME280;41070;50.360;18.742;2024-03-02T11:43:00;98101.75;;;12.23;94.26
55191;BME280;41070;50.360;18.742;2024-03-02T11:45:27;98099.69;;;12.24;94.37
55191;BME280;41070;50.360;18.742;2024-03-02T11:47:55;98102.48;;;12.27;94.55
55191;BME280;41070;50.360;18.742;2024-03-02T11:50:34;98101.84;;;12.30;94.48
55191;BME280;41070;50.360;18.742;2024-03-02T11:53:01;98100.81;;;12.36;94.67
55191;BME280;41070;50.360;18.742;2024-03-02T11:55:30;98099.67;;;12.43;94.81
55191;BME280;41070;50.360;18.742;2024-03-02T11:57:57;98092.94;;;12.50;94.03
55191;BME280;41070;50.360;18.742;2024-03-02T12:00:25;98089.90;;;12.54;93.64
55191;BME280;41070;50.360;18.742;2024-03-02T12:05:33;98095.34;;;12.66;93.19
55191;BME280;41070;50.360;18.742;2024-03-02T12:08:05;98091.66;;;12.74;93.63
55191;BME280;41070;50.360;18.742;2024-03-02T12:11:04;98085.92;;;12.85;93.64
55191;BME280;41070;50.360;18.742;2024-03-02T12:13:34;98086.38;;;12.93;93.20
55191;BME280;41070;50.360;18.742;2024-03-02T12:16:00;98084.67;;;12.97;93.14
55191;BME280;41070;50.360;18.742;2024-03-02T12:18:29;98086.48;;;13.03;93.16
55191;BME280;41070;50.360;18.742;2024-03-02T12:20:56;98088.45;;;13.08;93.06
55191;BME280;41070;50.360;18.742;2024-03-02T12:23:24;98086.77;;;13.11;92.53
55191;BME280;41070;50.360;18.742;2024-03-02T12:25:51;98084.40;;;13.10;92.46
55191;BME280;41070;50.360;18.742;2024-03-02T12:28:17;98083.10;;;13.11;92.23
55191;BME280;41070;50.360;18.742;2024-03-02T12:30:44;98083.59;;;13.06;91.90
55191;BME280;41070;50.360;18.742;2024-03-02T12:33:11;98082.73;;;13.06;92.26
55191;BME280;41070;50.360;18.742;2024-03-02T12:35:54;98081.35;;;13.04;92.25
55191;BME280;41070;50.360;18.742;2024-03-02T12:38:20;98081.48;;;13.02;91.82
55191;BME280;41070;50.360;18.742;2024-03-02T12:41:02;98081.05;;;12.97;91.93
55191;BME280;41070;50.360;18.742;2024-03-02T12:43:31;98084.88;;;12.87;91.34
55191;BME280;41070;50.360;18.742;2024-03-02T12:45:58;98084.88;;;12.78;91.51
55191;BME280;41070;50.360;18.742;2024-03-02T12:48:28;98085.92;;;12.75;91.89
55191;BME280;41070;50.360;18.742;2024-03-02T12:50:55;98088.08;;;12.77;92.41
55191;BME280;41070;50.360;18.742;2024-03-02T12:53:21;98084.61;;;12.74;92.27
55191;BME280;41070;50.360;18.742;2024-03-02T12:55:48;98080.28;;;12.72;92.18
55191;BME280;41070;50.360;18.742;2024-03-02T12:58:22;98081.20;;;12.71;92.58
55191;BME280;41070;50.360;18.742;2024-03-02T13:00:48;98081.13;;;12.71;92.29
55191;BME280;41070;50.360;18.742;2024-03-02T13:03:18;98083.79;;;12.62;91.95
55191;BME280;41070;50.360;18.742;2024-03-02T13:05:49;98080.58;;;12.55;92.36
55191;BME280;41070;50.360;18.742;2024-03-02T13:08:16;98080.05;;;12.49;92.31
55191;BME280;41070;50.360;18.742;2024-03-02T13:10:43;98073.87;;;12.45;92.86